sensor_id;sensor_type;location;lat;lon;timestamp;temperature;humidity
15997;DHT22;8103;51.340;12.326;2023-06-19T00:02:13;21.00;68.20
15997;DHT22;8103;51.340;12.326;2023-06-19T00:04:41;21.00;68.40
15997;DHT22;8103;51.340;12.326;2023-06-19T00:07:08;20.90;68.40
15997;DHT22;8103;51.340;12.326;2023-06-19T00:09:34;20.90;68.60
15997;DHT22;8103;51.340;12.326;2023-06-19T00:12:02;20.90;68.80
15997;DHT22;8103;51.340;12.326;2023-06-19T00:14:30;20.90;69.00
15997;DHT22;8103;51.340;12.326;2023-06-19T00:16:57;20.80;69.00
15997;DHT22;8103;51.340;12.326;2023-06-19T00:19:24;20.80;69.30
15997;DHT22;8103;51.340;12.326;2023-06-19T00:21:51;20.80;69.50
15997;DHT22;8103;51.340;12.326;2023-06-19T00:24:23;20.80;69.90
15997;DHT22;8103;51.340;12.326;2023-06-19T00:26:50;20.80;70.10
15997;DHT22;8103;51.340;12.326;2023-06-19T00:29:17;20.80;71.20
15997;DHT22;8103;51.340;12.326;2023-06-19T00:31:44;20.80;70.60
15997;DHT22;8103;51.340;12.326;2023-06-19T00:34:13;20.80;70.90
15997;DHT22;8103;51.340;12.326;2023-06-19T00:36:39;20.80;71.10
15997;DHT22;8103;51.340;12.326;2023-06-19T00:39:07;20.80;71.00
15997;DHT22;8103;51.340;12.326;2023-06-19T00:41:35;20.90;71.00
15997;DHT22;8103;51.340;12.326;2023-06-19T00:44:04;20.90;71.00
15997;DHT22;8103;51.340;12.326;2023-06-19T00:46:31;20.90;70.90
15997;DHT22;8103;51.340;12.326;2023-06-19T00:48:58;20.90;70.80
15997;DHT22;8103;51.340;12.326;2023-06-19T00:51:26;21.00;70.70
15997;DHT22;8103;51.340;12.326;2023-06-19T00:53:53;21.00;70.30
15997;DHT22;8103;51.340;12.326;2023-06-19T00:56:20;21.00;70.00
15997;DHT22;8103;51.340;12.326;2023-06-19T00:58:47;20.90;69.70
15997;DHT22;8103;51.340;12.326;2023-06-19T01:01:14;20.80;69.80
15997;DHT22;8103;51.340;12.326;2023-06-19T01:03:41;21.00;70.20
15997;DHT22;8103;51.340;12.326;2023-06-19T01:06:13;21.00;70.30
15997;DHT22;8103;51.340;12.326;2023-06-19T01:09:08;21.00;70.40
15997;DHT22;8103;51.340;12.326;2023-06-19T01:11:44;21.00;70.40
15997;DHT22;8103;51.340;12.326;2023-06-19T01:14:26;21.00;70.20
15997;DHT22;8103;51.340;12.326;2023-06-19T01:16:57;21.00;69.80
15997;DHT22;8103;51.340;12.326;2023-06-19T01:19:24;21.00;69.70
15997;DHT22;8103;51.340;12.326;2023-06-19T01:21:52;21.00;69.60
15997;DHT22;8103;51.340;12.326;2023-06-19T01:24:19;21.00;69.60
15997;DHT22;8103;51.340;12.326;2023-06-19T01:26:46;21.00;69.70
15997;DHT22;8103;51.340;12.326;2023-06-19T01:29:14;21.00;69.70
15997;DHT22;8103;51.340;12.326;2023-06-19T01:31:59;21.00;69.50
15997;DHT22;8103;51.340;12.326;2023-06-19T01:34:33;21.00;69.60
15997;DHT22;8103;51.340;12.326;2023-06-19T01:37:06;21.10;69.50
15997;DHT22;8103;51.340;12.326;2023-06-19T01:39:36;21.10;69.50
15997;DHT22;8103;51.340;12.326;2023-06-19T01:42:05;21.00;69.70
15997;DHT22;8103;51.340;12.326;2023-06-19T01:44:33;21.00;69.90
15997;DHT22;8103;51.340;12.326;2023-06-19T01:47:08;21.00;70.00
15997;DHT22;8103;51.340;12.326;2023-06-19T01:49:37;21.00;70.40
15997;DHT22;8103;51.340;12.326;2023-06-19T01:52:06;20.90;70.50
15997;DHT22;8103;51.340;12.326;2023-06-19T01:54:33;20.90;70.60
15997;DHT22;8103;51.340;12.326;2023-06-19T01:56:59;20.90;70.50
15997;DHT22;8103;51.340;12.326;2023-06-19T01:59:27;20.90;70.70
15997;DHT22;8103;51.340;12.326;2023-06-19T02:01:54;20.90;70.80
15997;DHT22;8103;51.340;12.326;2023-06-19T02:04:21;20.80;70.70
15997;DHT22;8103;51.340;12.326;2023-06-19T02:06:47;20.80;70.80
15997;DHT22;8103;51.340;12.326;2023-06-19T02:09:15;20.80;70.90
15997;DHT22;8103;51.340;12.326;2023-06-19T02:11:42;20.70;70.90
15997;DHT22;8103;51.340;12.326;2023-06-19T02:14:09;20.70;71.00
15997;DHT22;8103;51.340;12.326;2023-06-19T02:16:37;20.60;71.10
15997;DHT22;8103;51.340;12.326;2023-06-19T02:19:04;20.60;71.50
15997;DHT22;8103;51.340;12.326;2023-06-19T02:21:31;20.50;71.90
15997;DHT22;8103;51.340;12.326;2023-06-19T02:23:58;20.50;72.00
15997;DHT22;8103;51.340;12.326;2023-06-19T02:26:25;20.50;72.10
15997;DHT22;8103;51.340;12.326;2023-06-19T02:28:56;20.50;72.10
15997;DHT22;8103;51.340;12.326;2023-06-19T02:31:23;20.50;72.30
15997;DHT22;8103;51.340;12.326;2023-06-19T02:33:50;20.40;72.30
15997;DHT22;8103;51.340;12.326;2023-06-19T02:36:17;20.40;72.50
15997;DHT22;8103;51.340;12.326;2023-06-19T02:38:47;20.40;72.60
15997;DHT22;8103;51.340;12.326;2023-06-19T02:41:14;20.40;72.80
15997;DHT22;8103;51.340;12.326;2023-06-19T02:43:42;20.30;72.90
15997;DHT22;8103;51.340;12.326;2023-06-19T02:46:10;20.30;73.00
15997;DHT22;8103;51.340;12.326;2023-06-19T02:48:38;20.30;73.20
15997;DHT22;8103;51.340;12.326;2023-06-19T02:51:06;20.30;73.60
15997;DHT22;8103;51.340;12.326;2023-06-19T02:53:32;20.30;73.70
15997;DHT22;8103;51.340;12.326;2023-06-19T02:56:00;20.30;73.70
15997;DHT22;8103;51.340;12.326;2023-06-19T02:58:26;20.20;73.80
15997;DHT22;8103;51.340;12.326;2023-06-19T03:00:53;20.20;74.00
15997;DHT22;8103;51.340;12.326;2023-06-19T03:03:20;20.20;74.30
15997;DHT22;8103;51.340;12.326;2023-06-19T03:05:49;20.20;74.40
15997;DHT22;8103;51.340;12.326;2023-06-19T03:08:16;20.20;74.50
15997;DHT22;8103;51.340;12.326;2023-06-19T03:10:43;20.20;74.60
15997;DHT22;8103;51.340;12.326;2023-06-19T03:13:12;20.20;74.80
15997;DHT22;8103;51.340;12.326;2023-06-19T03:15:40;20.20;74.70
15997;DHT22;8103;51.340;12.326;2023-06-19T03:18:06;20.20;74.90
15997;DHT22;8103;51.340;12.326;2023-06-19T03:20:37;20.20;74.80
15997;DHT22;8103;51.340;12.326;2023-06-19T03:23:04;20.20;74.60
15997;DHT22;8103;51.340;12.326;2023-06-19T03:25:31;20.20;74.90
15997;DHT22;8103;51.340;12.326;2023-06-19T03:28:01;20.30;75.00
15997;DHT22;8103;51.340;12.326;2023-06-19T03:30:29;20.30;74.90
15997;DHT22;8103;51.340;12.326;2023-06-19T03:32:56;20.40;74.80
15997;DHT22;8103;51.340;12.326;2023-06-19T03:35:23;20.40;74.90
15997;DHT22;8103;51.340;12.326;2023-06-19T03:37:50;20.40;74.90
15997;DHT22;8103;51.340;12.326;2023-06-19T03:40:17;20.50;75.00
15997;DHT22;8103;51.340;12.326;2023-06-19T03:42:44;20.50;74.90
15997;DHT22;8103;51.340;12.326;2023-06-19T03:45:10;20.50;74.80
15997;DHT22;8103;51.340;12.326;2023-06-19T03:47:37;20.50;74.80
15997;DHT22;8103;51.340;12.326;2023-06-19T03:50:08;20.50;74.50
15997;DHT22;8103;51.340;12.326;2023-06-19T03:52:46;20.50;74.60
15997;DHT22;8103;51.340;12.326;2023-06-19T03:55:13;20.60;74.80
15997;DHT22;8103;51.340;12.326;2023-06-19T03:57:40;20.60;74.80
15997;DHT22;8103;51.340;12.326;2023-06-19T04:00:07;20.70;74.70
15997;DHT22;8103;51.340;12.326;2023-06-19T04:02:34;20.70;74.70
15997;DHT22;8103;51.340;12.326;2023-06-19T04:05:01;20.80;74.70
15997;DHT22;8103;51.340;12.326;2023-06-19T04:07:28;20.80;74.60
15997;DHT22;8103;51.340;12.326;2023-06-19T04:09:56;20.80;74.40
15997;DHT22;8103;51.340;12.326;2023-06-19T04:12:23;20.90;74.20
15997;DHT22;8103;51.340;12.326;2023-06-19T04:14:50;20.90;74.20
15997;DHT22;8103;51.340;12.326;2023-06-19T04:17:17;20.90;74.40
15997;DHT22;8103;51.340;12.326;2023-06-19T04:19:44;20.90;74.70
15997;DHT22;8103;51.340;12.326;2023-06-19T04:22:11;20.90;74.90
15997;DHT22;8103;51.340;12.326;2023-06-19T04:24:38;21.00;75.00
15997;DHT22;8103;51.340;12.326;2023-06-19T04:27:05;21.00;75.70
15997;DHT22;8103;51.340;12.326;2023-06-19T04:29:34;20.90;75.30
15997;DHT22;8103;51.340;12.326;2023-06-19T04:32:02;20.90;75.60
15997;DHT22;8103;51.340;12.326;2023-06-19T04:34:38;20.90;76.00
15997;DHT22;8103;51.340;12.326;2023-06-19T04:37:05;20.90;77.10
15997;DHT22;8103;51.340;12.326;2023-06-19T04:39:32;20.90;77.40
15997;DHT22;8103;51.340;12.326;2023-06-19T04:42:00;20.90;77.30
15997;DHT22;8103;51.340;12.326;2023-06-19T04:44:27;21.00;77.40
15997;DHT22;8103;51.340;12.326;2023-06-19T04:46:53;21.00;77.80
15997;DHT22;8103;51.340;12.326;2023-06-19T04:49:31;21.10;77.90
15997;DHT22;8103;51.340;12.326;2023-06-19T04:51:58;21.10;77.90
15997;DHT22;8103;51.340;12.326;2023-06-19T04:54:25;21.10;77.70
15997;DHT22;8103;51.340;12.326;2023-06-19T04:56:52;21.20;77.50
15997;DHT22;8103;51.340;12.326;2023-06-19T04:59:20;21.20;77.10
15997;DHT22;8103;51.340;12.326;2023-06-19T05:01:47;21.30;76.90
15997;DHT22;8103;51.340;12.326;2023-06-19T05:04:15;21.30;76.80
15997;DHT22;8103;51.340;12.326;2023-06-19T05:06:41;21.40;76.70
15997;DHT22;8103;51.340;12.326;2023-06-19T05:09:09;21.40;76.60
15997;DHT22;8103;51.340;12.326;2023-06-19T05:11:37;21.40;76.50
15997;DHT22;8103;51.340;12.326;2023-06-19T05:14:04;21.30;76.30
15997;DHT22;8103;51.340;12.326;2023-06-19T05:16:31;21.20;76.60
15997;DHT22;8103;51.340;12.326;2023-06-19T05:19:02;21.10;76.90
15997;DHT22;8103;51.340;12.326;2023-06-19T05:21:29;21.10;77.20
15997;DHT22;8103;51.340;12.326;2023-06-19T05:23:56;21.10;77.30
15997;DHT22;8103;51.340;12.326;2023-06-19T05:26:23;21.10;77.60
15997;DHT22;8103;51.340;12.326;2023-06-19T05:28:50;21.10;77.80
15997;DHT22;8103;51.340;12.326;2023-06-19T05:31:17;21.00;78.00
15997;DHT22;8103;51.340;12.326;2023-06-19T05:33:48;21.00;78.20
15997;DHT22;8103;51.340;12.326;2023-06-19T05:36:15;21.00;78.30
15997;DHT22;8103;51.340;12.326;2023-06-19T05:38:44;21.00;78.50
15997;DHT22;8103;51.340;12.326;2023-06-19T05:41:13;21.00;78.70
15997;DHT22;8103;51.340;12.326;2023-06-19T05:43:42;21.00;78.70
15997;DHT22;8103;51.340;12.326;2023-06-19T05:46:09;21.00;79.00
15997;DHT22;8103;51.340;12.326;2023-06-19T05:48:38;21.00;79.20
15997;DHT22;8103;51.340;12.326;2023-06-19T05:51:05;21.00;79.60
15997;DHT22;8103;51.340;12.326;2023-06-19T05:53:32;21.00;80.10
15997;DHT22;8103;51.340;12.326;2023-06-19T05:55:59;21.00;80.70
15997;DHT22;8103;51.340;12.326;2023-06-19T05:58:26;21.10;82.40
15997;DHT22;8103;51.340;12.326;2023-06-19T06:00:53;21.10;82.90
15997;DHT22;8103;51.340;12.326;2023-06-19T06:03:25;21.10;82.60
15997;DHT22;8103;51.340;12.326;2023-06-19T06:05:52;21.00;83.80
15997;DHT22;8103;51.340;12.326;2023-06-19T06:08:19;20.90;84.90
15997;DHT22;8103;51.340;12.326;2023-06-19T06:10:46;20.90;85.50
15997;DHT22;8103;51.340;12.326;2023-06-19T06:13:13;20.90;84.90
15997;DHT22;8103;51.340;12.326;2023-06-19T06:15:40;20.90;85.10
15997;DHT22;8103;51.340;12.326;2023-06-19T06:18:07;20.80;86.60
15997;DHT22;8103;51.340;12.326;2023-06-19T06:20:34;20.80;88.20
15997;DHT22;8103;51.340;12.326;2023-06-19T06:23:04;20.80;88.60
15997;DHT22;8103;51.340;12.326;2023-06-19T06:25:32;20.80;88.60
15997;DHT22;8103;51.340;12.326;2023-06-19T06:27:59;20.70;89.00
15997;DHT22;8103;51.340;12.326;2023-06-19T06:30:26;20.60;89.50
15997;DHT22;8103;51.340;12.326;2023-06-19T06:32:55;20.60;89.90
15997;DHT22;8103;51.340;12.326;2023-06-19T06:35:22;20.50;90.20
15997;DHT22;8103;51.340;12.326;2023-06-19T06:41:55;20.50;91.00
15997;DHT22;8103;51.340;12.326;2023-06-19T06:44:22;20.40;91.20
15997;DHT22;8103;51.340;12.326;2023-06-19T06:46:50;20.30;91.40
15997;DHT22;8103;51.340;12.326;2023-06-19T06:49:19;20.20;91.60
15997;DHT22;8103;51.340;12.326;2023-06-19T06:51:46;20.20;91.80
15997;DHT22;8103;51.340;12.326;2023-06-19T06:54:14;20.20;92.00
15997;DHT22;8103;51.340;12.326;2023-06-19T06:56:41;20.20;92.50
15997;DHT22;8103;51.340;12.326;2023-06-19T07:03:14;20.30;92.90
15997;DHT22;8103;51.340;12.326;2023-06-19T07:05:41;20.30;92.90
15997;DHT22;8103;51.340;12.326;2023-06-19T07:08:08;20.30;93.40
15997;DHT22;8103;51.340;12.326;2023-06-19T07:10:35;20.40;93.70
15997;DHT22;8103;51.340;12.326;2023-06-19T07:13:05;20.60;93.90
15997;DHT22;8103;51.340;12.326;2023-06-19T07:15:32;20.70;94.10
15997;DHT22;8103;51.340;12.326;2023-06-19T07:17:59;20.90;94.00
15997;DHT22;8103;51.340;12.326;2023-06-19T07:20:27;21.10;93.40
15997;DHT22;8103;51.340;12.326;2023-06-19T07:22:56;21.10;93.00
15997;DHT22;8103;51.340;12.326;2023-06-19T07:25:23;21.20;92.30
15997;DHT22;8103;51.340;12.326;2023-06-19T07:27:51;21.20;91.80
15997;DHT22;8103;51.340;12.326;2023-06-19T07:30:19;21.20;91.40
15997;DHT22;8103;51.340;12.326;2023-06-19T07:32:46;21.40;91.10
15997;DHT22;8103;51.340;12.326;2023-06-19T07:35:13;21.50;90.90
15997;DHT22;8103;51.340;12.326;2023-06-19T07:37:40;21.70;90.80
15997;DHT22;8103;51.340;12.326;2023-06-19T07:40:07;21.80;90.30
15997;DHT22;8103;51.340;12.326;2023-06-19T07:42:35;22.00;88.70
15997;DHT22;8103;51.340;12.326;2023-06-19T07:45:03;22.10;87.00
15997;DHT22;8103;51.340;12.326;2023-06-19T07:47:30;22.20;86.00
15997;DHT22;8103;51.340;12.326;2023-06-19T07:49:57;22.30;85.90
15997;DHT22;8103;51.340;12.326;2023-06-19T07:52:24;22.40;84.70
15997;DHT22;8103;51.340;12.326;2023-06-19T07:54:59;22.50;84.50
15997;DHT22;8103;51.340;12.326;2023-06-19T07:57:26;22.80;84.40
15997;DHT22;8103;51.340;12.326;2023-06-19T07:59:54;23.10;83.20
15997;DHT22;8103;51.340;12.326;2023-06-19T08:02:21;23.40;82.00
15997;DHT22;8103;51.340;12.326;2023-06-19T08:04:48;23.50;80.00
15997;DHT22;8103;51.340;12.326;2023-06-19T08:07:16;23.50;79.40
15997;DHT22;8103;51.340;12.326;2023-06-19T08:09:43;23.60;79.10
15997;DHT22;8103;51.340;12.326;2023-06-19T08:12:12;23.50;78.90
15997;DHT22;8103;51.340;12.326;2023-06-19T08:14:39;23.70;78.80
15997;DHT22;8103;51.340;12.326;2023-06-19T08:17:06;23.70;78.00
15997;DHT22;8103;51.340;12.326;2023-06-19T08:19:33;23.80;78.40
15997;DHT22;8103;51.340;12.326;2023-06-19T08:22:01;24.00;77.70
15997;DHT22;8103;51.340;12.326;2023-06-19T08:28:34;24.70;75.20
15997;DHT22;8103;51.340;12.326;2023-06-19T08:31:01;25.30;71.80
15997;DHT22;8103;51.340;12.326;2023-06-19T08:33:29;25.60;68.90
15997;DHT22;8103;51.340;12.326;2023-06-19T08:35:56;25.90;67.60
15997;DHT22;8103;51.340;12.326;2023-06-19T08:38:23;26.10;65.20
15997;DHT22;8103;51.340;12.326;2023-06-19T08:40:50;26.40;63.50
15997;DHT22;8103;51.340;12.326;2023-06-19T08:43:17;26.60;61.40
15997;DHT22;8103;51.340;12.326;2023-06-19T08:45:58;26.70;60.20
15997;DHT22;8103;51.340;12.326;2023-06-19T08:48:37;27.00;58.90
15997;DHT22;8103;51.340;12.326;2023-06-19T08:51:05;27.10;57.90
15997;DHT22;8103;51.340;12.326;2023-06-19T08:53:43;27.50;57.70
15997;DHT22;8103;51.340;12.326;2023-06-19T08:56:12;27.90;57.00
15997;DHT22;8103;51.340;12.326;2023-06-19T08:58:39;28.60;55.20
15997;DHT22;8103;51.340;12.326;2023-06-19T09:01:05;29.40;53.70
15997;DHT22;8103;51.340;12.326;2023-06-19T09:03:33;29.80;50.40
15997;DHT22;8103;51.340;12.326;2023-06-19T09:06:03;29.90;49.30
15997;DHT22;8103;51.340;12.326;2023-06-19T09:08:32;29.80;47.40
15997;DHT22;8103;51.340;12.326;2023-06-19T09:11:04;29.80;47.10
15997;DHT22;8103;51.340;12.326;2023-06-19T09:13:33;29.90;46.80
15997;DHT22;8103;51.340;12.326;2023-06-19T09:16:07;30.00;46.70
15997;DHT22;8103;51.340;12.326;2023-06-19T09:18:47;30.60;45.90
15997;DHT22;8103;51.340;12.326;2023-06-19T09:21:16;30.90;43.90
15997;DHT22;8103;51.340;12.326;2023-06-19T09:23:48;30.90;43.20
15997;DHT22;8103;51.340;12.326;2023-06-19T09:26:18;30.80;43.70
15997;DHT22;8103;51.340;12.326;2023-06-19T09:28:46;30.80;43.90
15997;DHT22;8103;51.340;12.326;2023-06-19T09:31:16;31.30;43.40
15997;DHT22;8103;51.340;12.326;2023-06-19T09:33:43;31.60;42.80
15997;DHT22;8103;51.340;12.326;2023-06-19T09:36:10;31.90;42.10
15997;DHT22;8103;51.340;12.326;2023-06-19T09:38:38;32.20;41.80
15997;DHT22;8103;51.340;12.326;2023-06-19T09:45:14;32.00;41.20
15997;DHT22;8103;51.340;12.326;2023-06-19T09:47:46;31.90;41.60
15997;DHT22;8103;51.340;12.326;2023-06-19T09:50:16;31.80;41.80
15997;DHT22;8103;51.340;12.326;2023-06-19T09:52:44;31.60;42.10
15997;DHT22;8103;51.340;12.326;2023-06-19T09:55:14;31.50;42.80
15997;DHT22;8103;51.340;12.326;2023-06-19T09:57:44;31.50;43.00
15997;DHT22;8103;51.340;12.326;2023-06-19T10:00:15;31.60;42.90
15997;DHT22;8103;51.340;12.326;2023-06-19T10:02:49;31.40;43.10
15997;DHT22;8103;51.340;12.326;2023-06-19T10:05:17;31.10;43.10
15997;DHT22;8103;51.340;12.326;2023-06-19T10:07:54;30.90;43.60
15997;DHT22;8103;51.340;12.326;2023-06-19T10:10:27;30.80;44.10
15997;DHT22;8103;51.340;12.326;2023-06-19T10:13:11;30.90;44.10
15997;DHT22;8103;51.340;12.326;2023-06-19T10:15:44;31.50;43.50
15997;DHT22;8103;51.340;12.326;2023-06-19T10:18:15;32.30;41.40
15997;DHT22;8103;51.340;12.326;2023-06-19T10:20:44;32.70;40.10
15997;DHT22;8103;51.340;12.326;2023-06-19T10:23:17;32.70;40.20
15997;DHT22;8103;51.340;12.326;2023-06-19T10:25:49;32.90;40.00
15997;DHT22;8103;51.340;12.326;2023-06-19T10:28:30;32.80;40.00
15997;DHT22;8103;51.340;12.326;2023-06-19T10:31:03;33.10;39.60
15997;DHT22;8103;51.340;12.326;2023-06-19T10:33:35;33.60;38.90
15997;DHT22;8103;51.340;12.326;2023-06-19T10:36:21;34.00;38.60
15997;DHT22;8103;51.340;12.326;2023-06-19T10:38:49;34.40;37.90
15997;DHT22;8103;51.340;12.326;2023-06-19T10:41:17;34.50;37.10
15997;DHT22;8103;51.340;12.326;2023-06-19T10:44:05;34.10;37.40
15997;DHT22;8103;51.340;12.326;2023-06-19T10:46:37;34.20;38.10
15997;DHT22;8103;51.340;12.326;2023-06-19T10:49:06;34.50;37.80
15997;DHT22;8103;51.340;12.326;2023-06-19T10:51:35;35.00;36.50
15997;DHT22;8103;51.340;12.326;2023-06-19T10:54:07;35.70;35.10
15997;DHT22;8103;51.340;12.326;2023-06-19T10:56:34;35.80;34.90
15997;DHT22;8103;51.340;12.326;2023-06-19T10:59:06;35.50;35.10
15997;DHT22;8103;51.340;12.326;2023-06-19T11:01:41;35.00;35.50
15997;DHT22;8103;51.340;12.326;2023-06-19T11:04:11;34.60;35.50
15997;DHT22;8103;51.340;12.326;2023-06-19T11:06:42;34.40;35.90
15997;DHT22;8103;51.340;12.326;2023-06-19T11:09:11;34.20;36.20
15997;DHT22;8103;51.340;12.326;2023-06-19T11:11:41;34.60;35.00
15997;DHT22;8103;51.340;12.326;2023-06-19T11:14:11;36.00;33.70
15997;DHT22;8103;51.340;12.326;2023-06-19T11:16:44;37.00;32.00
15997;DHT22;8103;51.340;12.326;2023-06-19T11:19:20;37.50;31.40
15997;DHT22;8103;51.340;12.326;2023-06-19T11:21:51;37.20;31.40
15997;DHT22;8103;51.340;12.326;2023-06-19T11:24:19;36.30;32.70
15997;DHT22;8103;51.340;12.326;2023-06-19T11:26:48;35.50;33.60
15997;DHT22;8103;51.340;12.326;2023-06-19T11:32:14;35.20;33.80
15997;DHT22;8103;51.340;12.326;2023-06-19T11:34:42;34.60;35.10
15997;DHT22;8103;51.340;12.326;2023-06-19T11:37:17;34.70;35.80
15997;DHT22;8103;51.340;12.326;2023-06-19T11:39:45;35.50;35.40
15997;DHT22;8103;51.340;12.326;2023-06-19T11:42:14;37.20;33.90
15997;DHT22;8103;51.340;12.326;2023-06-19T11:48:49;39.10;30.00
15997;DHT22;8103;51.340;12.326;2023-06-19T11:51:31;39.60;30.00
15997;DHT22;8103;51.340;12.326;2023-06-19T11:53:58;40.70;29.00
15997;DHT22;8103;51.340;12.326;2023-06-19T12:00:31;40.80;28.50
15997;DHT22;8103;51.340;12.326;2023-06-19T12:07:05;41.60;28.20
15997;DHT22;8103;51.340;12.326;2023-06-19T12:13:40;42.60;27.10
15997;DHT22;8103;51.340;12.326;2023-06-19T12:16:09;42.60;26.80
15997;DHT22;8103;51.340;12.326;2023-06-19T12:18:36;42.40;27.10
15997;DHT22;8103;51.340;12.326;2023-06-19T12:21:04;42.90;26.90
15997;DHT22;8103;51.340;12.326;2023-06-19T12:23:30;43.80;26.10
15997;DHT22;8103;51.340;12.326;2023-06-19T12:25:57;44.20;25.80
15997;DHT22;8103;51.340;12.326;2023-06-19T12:28:24;44.00;25.60
15997;DHT22;8103;51.340;12.326;2023-06-19T12:30:52;43.90;25.50
15997;DHT22;8103;51.340;12.326;2023-06-19T12:33:20;44.50;25.30
15997;DHT22;8103;51.340;12.326;2023-06-19T12:35:50;45.30;24.80
15997;DHT22;8103;51.340;12.326;2023-06-19T12:38:16;46.30;24.30
15997;DHT22;8103;51.340;12.326;2023-06-19T12:40:44;47.00;23.80
15997;DHT22;8103;51.340;12.326;2023-06-19T12:43:12;46.80;23.30
15997;DHT22;8103;51.340;12.326;2023-06-19T12:45:39;46.50;23.30
15997;DHT22;8103;51.340;12.326;2023-06-19T12:48:09;46.50;22.70
15997;DHT22;8103;51.340;12.326;2023-06-19T12:50:37;46.10;22.20
15997;DHT22;8103;51.340;12.326;2023-06-19T12:53:04;45.50;22.90
15997;DHT22;8103;51.340;12.326;2023-06-19T12:55:30;45.60;22.70
15997;DHT22;8103;51.340;12.326;2023-06-19T12:57:57;45.30;22.60
15997;DHT22;8103;51.340;12.326;2023-06-19T13:00:24;45.30;22.80
15997;DHT22;8103;51.340;12.326;2023-06-19T13:02:51;45.40;22.80
15997;DHT22;8103;51.340;12.326;2023-06-19T13:05:18;44.80;23.20
15997;DHT22;8103;51.340;12.326;2023-06-19T13:07:45;44.00;23.80
15997;DHT22;8103;51.340;12.326;2023-06-19T13:14:18;41.60;25.80
15997;DHT22;8103;51.340;12.326;2023-06-19T13:20:52;40.90;26.90
15997;DHT22;8103;51.340;12.326;2023-06-19T13:27:24;43.40;24.90
15997;DHT22;8103;51.340;12.326;2023-06-19T13:29:53;44.00;24.40
15997;DHT22;8103;51.340;12.326;2023-06-19T13:32:21;44.20;24.30
15997;DHT22;8103;51.340;12.326;2023-06-19T13:34:48;44.10;24.40
15997;DHT22;8103;51.340;12.326;2023-06-19T13:37:15;43.60;24.60
15997;DHT22;8103;51.340;12.326;2023-06-19T13:39:42;42.40;25.20
15997;DHT22;8103;51.340;12.326;2023-06-19T13:42:09;41.20;26.20
15997;DHT22;8103;51.340;12.326;2023-06-19T13:44:38;40.40;27.10
15997;DHT22;8103;51.340;12.326;2023-06-19T13:47:05;39.50;28.20
15997;DHT22;8103;51.340;12.326;2023-06-19T13:49:32;38.90;29.10
15997;DHT22;8103;51.340;12.326;2023-06-19T13:51:59;39.20;29.30
15997;DHT22;8103;51.340;12.326;2023-06-19T13:54:26;40.40;28.60
15997;DHT22;8103;51.340;12.326;2023-06-19T13:56:53;41.40;27.70
15997;DHT22;8103;51.340;12.326;2023-06-19T13:59:20;41.60;27.40
15997;DHT22;8103;51.340;12.326;2023-06-19T14:01:47;41.10;27.70
15997;DHT22;8103;51.340;12.326;2023-06-19T14:04:13;40.50;28.20
15997;DHT22;8103;51.340;12.326;2023-06-19T14:06:40;39.80;28.90
15997;DHT22;8103;51.340;12.326;2023-06-19T14:09:09;39.20;29.50
15997;DHT22;8103;51.340;12.326;2023-06-19T14:11:39;39.00;29.70
15997;DHT22;8103;51.340;12.326;2023-06-19T14:14:06;38.30;30.30
15997;DHT22;8103;51.340;12.326;2023-06-19T14:20:39;36.30;33.10
15997;DHT22;8103;51.340;12.326;2023-06-19T14:23:06;35.70;34.20
15997;DHT22;8103;51.340;12.326;2023-06-19T14:29:38;37.40;31.70
15997;DHT22;8103;51.340;12.326;2023-06-19T14:32:11;39.30;30.00
15997;DHT22;8103;51.340;12.326;2023-06-19T14:34:38;39.90;29.20
15997;DHT22;8103;51.340;12.326;2023-06-19T14:37:05;39.40;29.60
15997;DHT22;8103;51.340;12.326;2023-06-19T14:39:32;38.70;30.00
15997;DHT22;8103;51.340;12.326;2023-06-19T14:41:59;38.00;30.70
15997;DHT22;8103;51.340;12.326;2023-06-19T14:44:26;37.70;31.40
15997;DHT22;8103;51.340;12.326;2023-06-19T14:46:53;38.20;31.30
15997;DHT22;8103;51.340;12.326;2023-06-19T14:49:20;38.70;30.50
15997;DHT22;8103;51.340;12.326;2023-06-19T14:51:47;39.50;30.00
15997;DHT22;8103;51.340;12.326;2023-06-19T14:54:14;40.40;29.00
15997;DHT22;8103;51.340;12.326;2023-06-19T14:56:44;41.00;28.40
15997;DHT22;8103;51.340;12.326;2023-06-19T14:59:14;41.20;28.30
15997;DHT22;8103;51.340;12.326;2023-06-19T15:05:48;41.90;27.80
15997;DHT22;8103;51.340;12.326;2023-06-19T15:08:14;42.00;27.40
15997;DHT22;8103;51.340;12.326;2023-06-19T15:10:48;41.70;27.60
15997;DHT22;8103;51.340;12.326;2023-06-19T15:13:15;41.70;27.80
15997;DHT22;8103;51.340;12.326;2023-06-19T15:15:45;41.80;27.60
15997;DHT22;8103;51.340;12.326;2023-06-19T15:22:18;40.90;28.20
15997;DHT22;8103;51.340;12.326;2023-06-19T15:24:44;40.40;28.90
15997;DHT22;8103;51.340;12.326;2023-06-19T15:27:11;40.10;29.00
15997;DHT22;8103;51.340;12.326;2023-06-19T15:29:41;40.00;29.20
15997;DHT22;8103;51.340;12.326;2023-06-19T15:32:07;40.20;29.40
15997;DHT22;8103;51.340;12.326;2023-06-19T15:34:34;40.60;29.60
15997;DHT22;8103;51.340;12.326;2023-06-19T15:37:04;40.80;28.80
15997;DHT22;8103;51.340;12.326;2023-06-19T15:39:31;40.60;29.00
15997;DHT22;8103;51.340;12.326;2023-06-19T15:46:05;39.70;29.40
15997;DHT22;8103;51.340;12.326;2023-06-19T15:48:34;38.50;30.70
15997;DHT22;8103;51.340;12.326;2023-06-19T15:51:02;37.50;32.00
15997;DHT22;8103;51.340;12.326;2023-06-19T15:53:30;36.50;33.50
15997;DHT22;8103;51.340;12.326;2023-06-19T15:55:58;35.70;34.80
15997;DHT22;8103;51.340;12.326;2023-06-19T15:58:25;35.10;36.20
15997;DHT22;8103;51.340;12.326;2023-06-19T16:00:52;34.50;37.10
15997;DHT22;8103;51.340;12.326;2023-06-19T16:03:20;34.10;37.80
15997;DHT22;8103;51.340;12.326;2023-06-19T16:05:51;33.80;38.20
15997;DHT22;8103;51.340;12.326;2023-06-19T16:08:22;33.60;38.50
15997;DHT22;8103;51.340;12.326;2023-06-19T16:10:51;33.50;38.90
15997;DHT22;8103;51.340;12.326;2023-06-19T16:13:19;33.20;39.20
15997;DHT22;8103;51.340;12.326;2023-06-19T16:15:45;32.90;39.70
15997;DHT22;8103;51.340;12.326;2023-06-19T16:18:14;32.60;40.30
15997;DHT22;8103;51.340;12.326;2023-06-19T16:20:41;32.30;40.70
15997;DHT22;8103;51.340;12.326;2023-06-19T16:23:08;32.20;41.20
15997;DHT22;8103;51.340;12.326;2023-06-19T16:25:35;31.90;41.60
15997;DHT22;8103;51.340;12.326;2023-06-19T16:28:02;31.60;42.10
15997;DHT22;8103;51.340;12.326;2023-06-19T16:30:29;31.40;42.80
15997;DHT22;8103;51.340;12.326;2023-06-19T16:32:56;31.20;43.30
15997;DHT22;8103;51.340;12.326;2023-06-19T16:35:23;31.00;43.70
15997;DHT22;8103;51.340;12.326;2023-06-19T16:37:52;30.80;44.10
15997;DHT22;8103;51.340;12.326;2023-06-19T16:40:24;30.60;44.40
15997;DHT22;8103;51.340;12.326;2023-06-19T16:42:52;30.50;44.80
15997;DHT22;8103;51.340;12.326;2023-06-19T16:45:21;30.40;45.20
15997;DHT22;8103;51.340;12.326;2023-06-19T16:47:50;30.30;45.40